createdAt,value
2022-12-31T06:55:35.411Z,101000.06
2022-12-31T06:56:42.304Z,101003.45
2022-12-31T06:57:46.063Z,100999.91
2022-12-31T06:58:49.681Z,101013.79
2022-12-31T06:59:54.016Z,101011.05
2022-12-31T07:01:09.938Z,101015.30
2022-12-31T07:02:25.127Z,101006.67
2022-12-31T07:03:30.576Z,101014.56
2022-12-31T07:04:35.404Z,101007.34
2022-12-31T07:05:52.940Z,101006.39
2022-12-31T07:07:13.363Z,101012.53
2022-12-31T07:08:21.654Z,101008.98
2022-12-31T07:09:32.799Z,101012.63
2022-12-31T07:10:37.915Z,101018.55
2022-12-31T07:12:00.152Z,101019.90
2022-12-31T07:13:14.865Z,101017.78
2022-12-31T07:14:20.117Z,101020.17
2022-12-31T07:15:29.873Z,101016.80
2022-12-31T07:16:40.784Z,101020.36
2022-12-31T07:17:54.760Z,101008.58
2022-12-31T07:20:25.796Z,101008.78
2022-12-31T07:21:34.949Z,101013.06
2022-12-31T07:22:40.233Z,101012.63
2022-12-31T07:23:44.111Z,101019.80
2022-12-31T07:24:48.679Z,101016.86
2022-12-31T07:25:54.950Z,101020.47
2022-12-31T07:27:04.470Z,101016.04
2022-12-31T07:28:14.040Z,101012.63
2022-12-31T07:29:23.290Z,101019.20
2022-12-31T07:30:45.502Z,101019.17
2022-12-31T07:32:02.044Z,101020.83
2022-12-31T07:33:16.425Z,101021.73
2022-12-31T07:34:22.343Z,101017.21
2022-12-31T07:35:35.184Z,101020.19
2022-12-31T07:36:48.453Z,101018.85
2022-12-31T07:37:56.552Z,101020.87
2022-12-31T07:39:07.782Z,101019.23
2022-12-31T07:40:14.526Z,101024.58
2022-12-31T07:41:20.546Z,101027.88
2022-12-31T07:42:31.667Z,101029.92
2022-12-31T07:43:38.818Z,101018.70
2022-12-31T07:44:44.118Z,101020.84
2022-12-31T07:45:49.288Z,101015.51
2022-12-31T07:46:57.403Z,101024.21
2022-12-31T07:48:02.946Z,101023.09
2022-12-31T07:49:08.144Z,101010.37
2022-12-31T07:50:16.180Z,101015.56
2022-12-31T07:51:18.928Z,101014.70
2022-12-31T07:52:21.897Z,101012.50
2022-12-31T07:53:26.080Z,101009.87
2022-12-31T07:54:29.651Z,101007.89
2022-12-31T07:55:32.945Z,101016.56
2022-12-31T07:56:36.561Z,101019.61
2022-12-31T07:57:55.622Z,101023.49
2022-12-31T07:59:10.722Z,101022.48
2022-12-31T08:00:14.643Z,101025.26
2022-12-31T08:01:20.961Z,101029.22
2022-12-31T08:02:31.607Z,101028.53
2022-12-31T08:05:14.916Z,101017.66
2022-12-31T08:06:37.495Z,101026.87
2022-12-31T08:07:52.121Z,101025.88
2022-12-31T08:09:00.325Z,101037.48
2022-12-31T08:10:04.751Z,101037.11
2022-12-31T08:11:27.710Z,101047.62
2022-12-31T08:12:32.262Z,101042.61
2022-12-31T08:13:35.768Z,101059.00
2022-12-31T08:14:41.049Z,101054.43
2022-12-31T08:15:44.866Z,101051.34
2022-12-31T08:16:48.517Z,101061.28
2022-12-31T08:17:51.248Z,101054.86
2022-12-31T08:18:54.847Z,101060.59
2022-12-31T08:19:58.055Z,101052.67
2022-12-31T08:21:20.043Z,101067.48
2022-12-31T08:22:25.332Z,101064.33
2022-12-31T08:23:30.708Z,101065.47
2022-12-31T08:24:48.005Z,101055.02
2022-12-31T08:25:56.968Z,101068.11
2022-12-31T08:27:05.247Z,101061.52
2022-12-31T08:28:16.377Z,101062.02
2022-12-31T08:29:33.460Z,101053.87
2022-12-31T08:30:55.558Z,101067.83
2022-12-31T08:32:18.696Z,101059.70
2022-12-31T08:33:41.629Z,101071.52
2022-12-31T08:34:47.109Z,101073.34
2022-12-31T08:36:07.649Z,101076.28
2022-12-31T08:37:14.497Z,101070.94
2022-12-31T08:38:23.009Z,101067.45
2022-12-31T08:39:32.141Z,101062.62
2022-12-31T08:40:37.338Z,101054.88
2022-12-31T08:41:45.750Z,101052.61
2022-12-31T08:42:50.930Z,101039.66
2022-12-31T08:43:59.959Z,101040.70
2022-12-31T08:45:09.321Z,101035.03
2022-12-31T08:46:18.675Z,101028.62
2022-12-31T08:47:38.645Z,101024.88
2022-12-31T08:48:43.763Z,101011.61
2022-12-31T08:49:47.118Z,101010.46
2022-12-31T08:50:50.149Z,101010.06
2022-12-31T08:51:54.319Z,101001.72
2022-12-31T08:52:58.192Z,100996.05
2022-12-31T08:54:01.676Z,101000.08
2022-12-31T08:55:05.653Z,100997.16
2022-12-31T08:56:14.273Z,100994.38
2022-12-31T08:57:30.633Z,100992.52
2022-12-31T08:59:57.058Z,100982.98
2022-12-31T09:01:01.050Z,100984.77
2022-12-31T09:02:23.037Z,100993.99
2022-12-31T09:03:28.116Z,100993.84
2022-12-31T09:04:46.379Z,100991.59
2022-12-31T09:06:03.847Z,100987.03
2022-12-31T09:07:08.585Z,100992.85
2022-12-31T09:08:18.927Z,100992.20
2022-12-31T09:09:24.087Z,100986.39
2022-12-31T09:10:31.980Z,100988.38
2022-12-31T09:11:37.105Z,100986.04
2022-12-31T09:12:46.011Z,100984.44
2022-12-31T09:14:03.162Z,100987.41
2022-12-31T09:15:11.497Z,100979.89
2022-12-31T09:16:17.007Z,100986.05
2022-12-31T09:17:22.379Z,100979.03
2022-12-31T09:18:32.882Z,100982.16
2022-12-31T09:19:36.788Z,100985.31
2022-12-31T09:20:43.914Z,100975.72
2022-12-31T09:21:47.774Z,100976.39
2022-12-31T09:22:54.397Z,100989.81
2022-12-31T09:23:58.243Z,100979.48
2022-12-31T09:25:01.730Z,100986.86
2022-12-31T09:26:15.682Z,100973.50
2022-12-31T09:27:28.025Z,100969.26
2022-12-31T09:28:39.390Z,100973.44
2022-12-31T09:29:53.351Z,100969.94
2022-12-31T09:31:01.866Z,100972.64
2022-12-31T09:32:26.365Z,100968.80
2022-12-31T09:33:51.701Z,100972.58
2022-12-31T09:34:56.252Z,100971.78
2022-12-31T09:36:01.530Z,100980.56
2022-12-31T09:37:05.776Z,100970.30
2022-12-31T09:38:21.903Z,100978.84
2022-12-31T09:39:42.647Z,100972.42
2022-12-31T09:40:49.807Z,100975.48
2022-12-31T09:41:57.800Z,100974.89
2022-12-31T09:43:17.716Z,100981.63
2022-12-31T09:44:38.539Z,100973.97
2022-12-31T09:45:50.124Z,100973.84
2022-12-31T09:47:10.421Z,100975.75
2022-12-31T09:48:18.834Z,100968.42
2022-12-31T09:49:26.937Z,100971.12
2022-12-31T09:50:36.175Z,100974.83
2022-12-31T09:51:42.300Z,100967.20
2022-12-31T09:52:56.983Z,100972.25
2022-12-31T09:54:09.780Z,100956.58
2022-12-31T09:55:17.506Z,100963.02
2022-12-31T09:56:24.636Z,100963.63
2022-12-31T09:57:30.683Z,100958.08
2022-12-31T09:58:51.587Z,100966.38
2022-12-31T09:59:57.012Z,100964.67
2022-12-31T10:01:19.414Z,100968.23
2022-12-31T10:02:24.483Z,100969.90
2022-12-31T10:03:44.815Z,100977.27
2022-12-31T10:04:54.757Z,100970.47
2022-12-31T10:06:04.964Z,100968.23
2022-12-31T10:07:29.353Z,100970.58
2022-12-31T10:08:37.403Z,100963.17
2022-12-31T10:09:50.218Z,100967.14
2022-12-31T10:10:59.514Z,100964.03
2022-12-31T10:12:07.394Z,100955.21
2022-12-31T10:13:20.969Z,100954.23
2022-12-31T10:14:41.074Z,100957.91
2022-12-31T10:15:50.915Z,100950.03
2022-12-31T10:17:05.193Z,100946.05
2022-12-31T10:18:17.407Z,100947.50
2022-12-31T10:19:39.114Z,100940.89
2022-12-31T10:20:59.658Z,100940.77
2022-12-31T10:22:04.714Z,100935.55
2022-12-31T10:23:21.737Z,100932.91
2022-12-31T10:24:36.125Z,100930.80
2022-12-31T10:25:41.182Z,100930.06
2022-12-31T10:26:53.386Z,100932.23
2022-12-31T10:27:57.864Z,100926.80
2022-12-31T10:30:20.211Z,100923.80
2022-12-31T10:31:28.346Z,100921.49
2022-12-31T10:32:44.893Z,100917.55
2022-12-31T10:34:07.405Z,100921.67
2022-12-31T10:35:11.968Z,100915.81
2022-12-31T10:36:25.182Z,100921.89
2022-12-31T10:37:31.312Z,100919.77
2022-12-31T10:38:36.181Z,100916.09
2022-12-31T10:39:46.340Z,100910.95
2022-12-31T10:41:02.689Z,100913.30
2022-12-31T10:42:07.636Z,100907.43
2022-12-31T10:43:28.408Z,100902.54
2022-12-31T10:44:49.696Z,100905.77
2022-12-31T10:46:02.503Z,100913.02
2022-12-31T10:47:26.201Z,100908.81
2022-12-31T10:48:37.372Z,100900.55
2022-12-31T10:49:46.318Z,100902.66
2022-12-31T10:50:50.447Z,100903.68
2022-12-31T10:53:36.612Z,100900.63
2022-12-31T10:54:41.043Z,100901.04
2022-12-31T10:55:54.700Z,100901.80
2022-12-31T10:57:00.587Z,100905.52
2022-12-31T10:58:10.880Z,100894.84
2022-12-31T10:59:18.776Z,100894.73
2022-12-31T11:00:23.128Z,100898.46
2022-12-31T11:01:28.914Z,100894.89
2022-12-31T11:02:41.632Z,100892.25
2022-12-31T11:04:00.150Z,100896.73
2022-12-31T11:06:18.982Z,100890.91
2022-12-31T11:07:23.939Z,100891.70
2022-12-31T11:08:37.747Z,100892.56
2022-12-31T11:10:00.508Z,100895.48
2022-12-31T11:11:14.486Z,100891.19
2022-12-31T11:12:27.573Z,100881.94
2022-12-31T11:13:32.757Z,100890.05
2022-12-31T11:14:39.917Z,100881.27
2022-12-31T11:16:00.677Z,100884.83
2022-12-31T11:17:10.672Z,100879.09
2022-12-31T11:18:24.578Z,100883.11
2022-12-31T11:19:32.960Z,100882.31
2022-12-31T11:20:43.082Z,100880.28
2022-12-31T11:21:48.473Z,100879.48
2022-12-31T11:22:55.114Z,100884.55
2022-12-31T11:24:00.304Z,100882.83
2022-12-31T11:25:13.298Z,100881.20
2022-12-31T11:26:34.980Z,100872.09
2022-12-31T11:28:01.846Z,100867.85
2022-12-31T11:29:11.902Z,100861.06
2022-12-31T11:30:31.337Z,100861.13
2022-12-31T11:31:51.875Z,100862.30
2022-12-31T11:33:03.107Z,100861.49
2022-12-31T11:34:17.268Z,100864.98
2022-12-31T11:35:40.607Z,100859.53
2022-12-31T11:36:45.297Z,100855.84
2022-12-31T11:39:05.651Z,100845.41
2022-12-31T11:40:11.129Z,100856.73
2022-12-31T11:41:15.262Z,100857.47
2022-12-31T11:42:35.207Z,100854.09
2022-12-31T11:43:43.904Z,100859.12
2022-12-31T11:44:57.847Z,100857.98
2022-12-31T11:46:11.106Z,100857.80
2022-12-31T11:47:38.088Z,100858.27
2022-12-31T11:48:43.045Z,100864.79
2022-12-31T11:49:48.326Z,100863.98
2022-12-31T11:50:54.542Z,100862.38
2022-12-31T11:52:21.611Z,100855.33
2022-12-31T11:53:27.127Z,100857.59
2022-12-31T11:54:49.556Z,100853.66
2022-12-31T11:55:54.326Z,100852.34
2022-12-31T11:57:00.539Z,100847.87
2022-12-31T11:58:05.711Z,100841.58
2022-12-31T11:59:18.691Z,100841.97
2022-12-31T12:00:22.767Z,100842.50
2022-12-31T12:01:28.895Z,100837.96
2022-12-31T12:02:39.638Z,100841.10
2022-12-31T12:03:45.429Z,100829.41
2022-12-31T12:04:50.764Z,100824.08
2022-12-31T12:05:56.150Z,100835.89
2022-12-31T12:07:00.933Z,100824.59
2022-12-31T12:09:18.595Z,100825.67
2022-12-31T12:10:27.851Z,100831.25
2022-12-31T12:11:35.019Z,100830.27
2022-12-31T12:12:39.218Z,100828.25
2022-12-31T12:13:43.567Z,100835.38
2022-12-31T12:14:48.839Z,100827.45
2022-12-31T12:15:56.569Z,100822.23
2022-12-31T12:17:05.258Z,100822.63
2022-12-31T12:18:09.180Z,100828.44
2022-12-31T12:19:14.561Z,100822.97
2022-12-31T12:20:21.705Z,100821.38
2022-12-31T12:21:25.208Z,100828.50
2022-12-31T12:22:29.043Z,100823.03
2022-12-31T12:23:33.696Z,100829.36
2022-12-31T12:24:37.228Z,100820.91
2022-12-31T12:25:41.654Z,100828.44
2022-12-31T12:26:45.775Z,100824.81
2022-12-31T12:27:49.133Z,100826.41
2022-12-31T12:28:51.364Z,100819.91
2022-12-31T12:29:55.489Z,100816.62
2022-12-31T12:31:00.532Z,100814.90
2022-12-31T12:32:08.853Z,100812.31
2022-12-31T12:33:14.107Z,100816.12
2022-12-31T12:34:24.829Z,100807.28
2022-12-31T12:35:35.643Z,100806.30
2022-12-31T12:36:43.062Z,100813.36
2022-12-31T12:37:46.334Z,100816.80
2022-12-31T12:38:52.423Z,100816.91
2022-12-31T12:39:56.767Z,100813.87
2022-12-31T12:41:01.135Z,100817.42
2022-12-31T12:42:05.655Z,100818.67
2022-12-31T12:43:09.668Z,100817.48
2022-12-31T12:44:20.406Z,100817.42
2022-12-31T12:45:25.160Z,100817.54
2022-12-31T12:46:31.556Z,100815.17
2022-12-31T12:47:37.389Z,100816.37
2022-12-31T12:48:41.794Z,100818.09
2022-12-31T12:49:47.004Z,100815.34
2022-12-31T12:50:53.909Z,100819.98
2022-12-31T12:52:04.661Z,100820.73
2022-12-31T12:53:12.923Z,100819.64
2022-12-31T12:54:36.541Z,100823.14
2022-12-31T12:55:45.573Z,100815.11
2022-12-31T12:56:53.892Z,100812.59
2022-12-31T12:58:01.999Z,100808.58
2022-12-31T12:59:09.981Z,100807.81
2022-12-31T13:00:14.212Z,100807.55
2022-12-31T13:01:30.223Z,100803.25
2022-12-31T13:02:46.534Z,100801.80
2022-12-31T13:04:32.949Z,100805.52
2022-12-31T13:05:13.359Z,100787.92
2022-12-31T13:06:24.704Z,100790.08
2022-12-31T13:07:33.765Z,100791.86
2022-12-31T13:08:45.123Z,100785.32
2022-12-31T13:09:49.724Z,100798.66
2022-12-31T13:10:58.992Z,100802.91
2022-12-31T13:12:07.493Z,100810.01
2022-12-31T13:13:24.238Z,100802.21
2022-12-31T13:14:28.114Z,100802.96
2022-12-31T13:15:32.324Z,100808.23
2022-12-31T13:16:37.670Z,100805.82
2022-12-31T13:17:55.064Z,100811.89
2022-12-31T13:19:13.738Z,100807.91
2022-12-31T13:20:22.915Z,100806.19
2022-12-31T13:21:45.768Z,100802.58
2022-12-31T13:22:51.009Z,100806.94
2022-12-31T13:24:01.213Z,100811.67
2022-12-31T13:25:09.294Z,100810.53
2022-12-31T13:26:17.360Z,100826.15
2022-12-31T13:27:32.509Z,100826.09
2022-12-31T13:28:36.129Z,100825.23
2022-12-31T13:29:42.116Z,100828.78
2022-12-31T13:30:46.094Z,100836.02
2022-12-31T13:31:50.787Z,100834.00
2022-12-31T13:32:55.157Z,100834.91
2022-12-31T13:34:01.474Z,100829.64
2022-12-31T13:35:05.654Z,100831.56
2022-12-31T13:36:11.839Z,100832.48
2022-12-31T13:37:26.089Z,100837.10
2022-12-31T13:38:36.808Z,100831.02
2022-12-31T13:39:42.489Z,100826.06
2022-12-31T13:40:47.559Z,100823.42
2022-12-31T13:41:53.894Z,100825.30
2022-12-31T13:43:10.446Z,100828.95
2022-12-31T13:44:31.613Z,100818.72
2022-12-31T13:45:37.050Z,100823.28
2022-12-31T13:47:00.245Z,100817.55
2022-12-31T13:48:08.193Z,100820.13
2022-12-31T13:49:24.379Z,100819.22
2022-12-31T13:50:36.245Z,100822.05
2022-12-31T13:51:45.189Z,100815.98
2022-12-31T13:53:05.711Z,100812.54
2022-12-31T13:54:12.965Z,100818.84
2022-12-31T13:55:18.152Z,100817.13
2022-12-31T13:56:24.472Z,100819.77
2022-12-31T13:57:41.889Z,100817.33
2022-12-31T13:58:48.920Z,100820.02
2022-12-31T13:59:53.928Z,100819.91
2022-12-31T14:01:00.096Z,100813.89
2022-12-31T14:02:10.083Z,100808.77
2022-12-31T14:03:16.664Z,100805.23
2022-12-31T14:04:27.032Z,100816.63
2022-12-31T14:05:34.809Z,100812.35
2022-12-31T14:06:46.680Z,100814.98
2022-12-31T14:07:51.143Z,100810.73
2022-12-31T14:08:53.404Z,100812.41
2022-12-31T14:09:57.639Z,100815.89
2022-12-31T14:11:15.021Z,100819.39
2022-12-31T14:12:22.900Z,100814.47
2022-12-31T14:13:34.295Z,100806.37
2022-12-31T14:14:45.919Z,100803.84
2022-12-31T14:15:50.883Z,100801.36
2022-12-31T14:17:01.571Z,100798.78
2022-12-31T14:18:06.108Z,100793.60
2022-12-31T14:19:11.260Z,100791.83
2022-12-31T14:20:24.231Z,100795.32
2022-12-31T14:21:32.826Z,100798.86
2022-12-31T14:22:40.061Z,100798.00
2022-12-31T14:24:00.937Z,100795.47
2022-12-31T14:25:06.325Z,100799.77
2022-12-31T14:26:12.460Z,100798.10
2022-12-31T14:27:23.563Z,100806.23
2022-12-31T14:28:46.705Z,100801.73
2022-12-31T14:29:57.322Z,100798.34
2022-12-31T14:31:03.532Z,100803.02
2022-12-31T14:32:28.767Z,100802.97
2022-12-31T14:33:34.773Z,100808.28
2022-12-31T14:34:56.053Z,100798.72
2022-12-31T14:36:10.170Z,100805.84
2022-12-31T14:37:16.418Z,100811.20
2022-12-31T14:38:22.637Z,100803.39
2022-12-31T14:39:27.610Z,100799.98
2022-12-31T14:40:47.726Z,100804.44
2022-12-31T14:41:55.601Z,100807.11
2022-12-31T14:43:03.717Z,100807.20
2022-12-31T14:44:12.511Z,100802.86
2022-12-31T14:45:23.575Z,100795.02
2022-12-31T14:46:31.553Z,100802.95
2022-12-31T14:47:42.792Z,100800.40
2022-12-31T14:48:48.081Z,100803.03
2022-12-31T14:49:53.077Z,100807.47
2022-12-31T14:50:59.311Z,100796.95
2022-12-31T14:52:21.870Z,100803.03
2022-12-31T14:53:26.533Z,100800.49
2022-12-31T14:54:31.557Z,100793.61
2022-12-31T14:55:36.189Z,100790.12
2022-12-31T14:56:44.261Z,100791.88
2022-12-31T14:58:59.218Z,100793.61
2022-12-31T15:00:04.385Z,100784.00
2022-12-31T15:01:11.851Z,100792.84
2022-12-31T15:02:28.823Z,100788.48
2022-12-31T15:03:38.956Z,100788.48
2022-12-31T15:04:45.989Z,100791.98
2022-12-31T15:05:57.941Z,100791.98
2022-12-31T15:07:04.155Z,100797.14
2022-12-31T15:08:23.327Z,100793.74
2022-12-31T15:09:45.221Z,100797.23
2022-12-31T15:11:00.876Z,100792.70
2022-12-31T15:12:08.019Z,100792.61
2022-12-31T15:13:15.678Z,100795.06
2022-12-31T15:14:21.946Z,100795.02
2022-12-31T15:15:42.866Z,100791.43
2022-12-31T15:17:01.221Z,100798.41
2022-12-31T15:18:19.951Z,100781.77
2022-12-31T15:19:25.052Z,100784.22
2022-12-31T15:20:44.294Z,100778.05
2022-12-31T15:21:49.488Z,100783.26
2022-12-31T15:22:52.877Z,100773.47
2022-12-31T15:23:57.219Z,100777.77
2022-12-31T15:25:01.462Z,100780.36
2022-12-31T15:26:06.039Z,100775.14
2022-12-31T15:27:10.122Z,100772.56
2022-12-31T15:28:31.684Z,100765.44
2022-12-31T15:29:37.689Z,100772.27
2022-12-31T15:30:43.769Z,100768.02
2022-12-31T15:31:48.077Z,100773.08
2022-12-31T15:32:51.462Z,100770.31
2022-12-31T15:33:59.688Z,100772.85
2022-12-31T15:35:04.209Z,100764.00
2022-12-31T15:36:15.655Z,100767.44
2022-12-31T15:37:29.724Z,100760.31
2022-12-31T15:38:35.662Z,100769.84
2022-12-31T15:39:41.511Z,100767.11
2022-12-31T15:40:46.814Z,100765.39
2022-12-31T15:42:56.951Z,100765.28
2022-12-31T15:44:01.201Z,100760.88
2022-12-31T15:45:06.897Z,100772.27
2022-12-31T15:46:12.338Z,100772.22
2022-12-31T15:47:22.996Z,100775.66
2022-12-31T15:48:33.071Z,100770.97
2022-12-31T15:49:38.939Z,100782.36
2022-12-31T15:50:46.358Z,100778.92
2022-12-31T15:51:50.799Z,100775.27
2022-12-31T15:52:54.925Z,100767.33
2022-12-31T15:53:58.551Z,100769.14
2022-12-31T15:55:07.123Z,100774.56
2022-12-31T15:56:17.891Z,100769.44
2022-12-31T15:57:31.209Z,100765.34
2022-12-31T15:58:42.013Z,100765.28
2022-12-31T15:59:47.016Z,100770.70
2022-12-31T16:00:55.284Z,100764.66
2022-12-31T16:01:58.831Z,100771.64
2022-12-31T16:03:04.203Z,100757.02
2022-12-31T16:04:13.231Z,100767.39
2022-12-31T16:05:23.215Z,100760.46
2022-12-31T16:06:28.485Z,100756.20
2022-12-31T16:07:31.352Z,100770.17
2022-12-31T16:08:35.595Z,100770.13
2022-12-31T16:09:43.967Z,100773.71
2022-12-31T16:10:46.806Z,100772.95
2022-12-31T16:11:50.735Z,100760.70
2022-12-31T16:12:54.312Z,100762.28
2022-12-31T16:13:59.709Z,100762.28
2022-12-31T16:15:02.782Z,100757.78
2022-12-31T16:16:08.762Z,100765.63
2022-12-31T16:17:29.545Z,100756.00
2022-12-31T16:18:43.187Z,100756.81
2022-12-31T16:19:49.251Z,100753.14
2022-12-31T16:20:54.472Z,100766.14
2022-12-31T16:22:00.825Z,100752.13
2022-12-31T16:23:06.002Z,100757.34
2022-12-31T16:24:26.816Z,100756.43
2022-12-31T16:25:32.851Z,100758.96
2022-12-31T16:26:47.510Z,100759.82
2022-12-31T16:27:53.895Z,100754.51
2022-12-31T16:28:59.982Z,100764.17
2022-12-31T16:30:07.851Z,100757.09
2022-12-31T16:31:17.992Z,100751.82
2022-12-31T16:32:22.069Z,100762.40
2022-12-31T16:33:26.804Z,100767.66
2022-12-31T16:34:35.128Z,100759.06
2022-12-31T16:35:38.742Z,100758.25
2022-12-31T16:36:41.825Z,100758.30
2022-12-31T16:37:45.852Z,100758.35
2022-12-31T16:38:49.700Z,100752.28
2022-12-31T16:39:57.199Z,100746.92
2022-12-31T16:41:04.307Z,100746.87
2022-12-31T16:42:21.375Z,100745.05
2022-12-31T16:43:27.082Z,100749.39
2022-12-31T16:44:31.107Z,100742.47
2022-12-31T16:45:36.747Z,100743.27
2022-12-31T16:46:41.511Z,100734.63
2022-12-31T16:47:45.598Z,100737.20
2022-12-31T16:48:50.315Z,100738.92
2022-12-31T16:49:58.445Z,100741.61
2022-12-31T16:51:02.928Z,100739.88
2022-12-31T16:52:09.007Z,100744.28
2022-12-31T16:53:14.717Z,100727.69
2022-12-31T16:54:23.361Z,100736.45
2022-12-31T16:55:28.399Z,100734.81
2022-12-31T16:56:35.978Z,100731.42
2022-12-31T16:57:40.130Z,100733.30
2022-12-31T16:58:46.689Z,100723.58
2022-12-31T16:59:51.756Z,100731.72
2022-12-31T17:00:55.858Z,100728.23
2022-12-31T17:02:01.151Z,100737.12
2022-12-31T17:03:09.810Z,100732.81
2022-12-31T17:04:14.635Z,100741.56
2022-12-31T17:05:19.281Z,100739.84
2022-12-31T17:06:24.351Z,100738.98
2022-12-31T17:07:32.515Z,100732.10
2022-12-31T17:08:40.414Z,100737.47
2022-12-31T17:09:45.019Z,100740.09
2022-12-31T17:10:48.711Z,100729.63
2022-12-31T17:11:59.005Z,100731.20
2022-12-31T17:14:13.658Z,100738.13
2022-12-31T17:15:18.950Z,100739.84
2022-12-31T17:16:22.353Z,100732.72
2022-12-31T17:17:27.711Z,100736.17
2022-12-31T17:18:32.791Z,100736.83
2022-12-31T17:19:40.246Z,100728.94
2022-12-31T17:20:43.548Z,100729.75
2022-12-31T17:21:47.813Z,100727.92
2022-12-31T17:22:54.026Z,100729.55
2022-12-31T17:23:58.243Z,100718.94
2022-12-31T17:25:09.247Z,100717.11
2022-12-31T17:26:17.053Z,100710.89
2022-12-31T17:27:21.970Z,100719.98
2022-12-31T17:28:27.977Z,100715.53
2022-12-31T17:29:31.425Z,100723.62
2022-12-31T17:30:35.659Z,100712.58
2022-12-31T17:31:40.000Z,100706.33
2022-12-31T17:32:45.482Z,100701.06
2022-12-31T17:33:49.003Z,100700.86
2022-12-31T17:34:51.246Z,100710.47
2022-12-31T17:35:58.728Z,100710.42
2022-12-31T17:37:17.465Z,100708.86
2022-12-31T17:38:24.950Z,100709.95
2022-12-31T17:39:30.761Z,100717.84
2022-12-31T17:40:51.011Z,100716.98
2022-12-31T17:41:45.505Z,100716.08
2022-12-31T17:42:49.946Z,100721.59
2022-12-31T17:43:56.714Z,100723.41
2022-12-31T17:45:01.757Z,100713.55
2022-12-31T17:46:14.427Z,100714.35
2022-12-31T17:47:20.667Z,100712.45
2022-12-31T17:48:26.360Z,100702.78
2022-12-31T17:49:32.312Z,100701.06
2022-12-31T17:50:35.682Z,100698.63
2022-12-31T17:51:41.279Z,100693.41
2022-12-31T17:52:43.516Z,100690.63
2022-12-31T17:53:48.076Z,100694.27
2022-12-31T17:54:50.225Z,100691.41
2022-12-31T17:55:54.672Z,100691.25
2022-12-31T17:56:58.374Z,100691.41
2022-12-31T17:58:02.400Z,100697.48
2022-12-31T17:59:06.123Z,100688.72
2022-12-31T18:00:13.582Z,100698.39
2022-12-31T18:01:18.828Z,100696.91
2022-12-31T18:02:23.279Z,100693.26
2022-12-31T18:03:26.650Z,100695.75
2022-12-31T18:04:32.246Z,100692.50
2022-12-31T18:05:35.931Z,100687.00
2022-12-31T18:06:39.200Z,100685.98
2022-12-31T18:07:42.831Z,100692.11
2022-12-31T18:08:46.116Z,100690.12
2022-12-31T18:09:50.173Z,100695.34
2022-12-31T18:10:54.798Z,100709.39
2022-12-31T18:12:01.492Z,100709.39
2022-12-31T18:13:05.260Z,100706.52
2022-12-31T18:14:10.860Z,100705.47
2022-12-31T18:15:17.700Z,100715.08
2022-12-31T18:16:21.196Z,100709.87
2022-12-31T18:17:24.822Z,100705.47
2022-12-31T18:18:30.431Z,100705.47
2022-12-31T18:20:40.500Z,100709.45
2022-12-31T18:21:45.263Z,100720.88
2022-12-31T18:22:51.098Z,100715.52
2022-12-31T18:24:56.490Z,100718.30
2022-12-31T18:25:58.605Z,100725.17
2022-12-31T18:27:02.001Z,100716.47
2022-12-31T18:28:10.150Z,100723.41
2022-12-31T18:29:18.520Z,100718.14
2022-12-31T18:30:23.802Z,100722.39
2022-12-31T18:31:28.330Z,100718.09
2022-12-31T18:32:33.739Z,100724.16
2022-12-31T18:33:38.480Z,100724.22
2022-12-31T18:34:41.894Z,100717.89
2022-12-31T18:36:50.367Z,100720.52
2022-12-31T18:37:53.692Z,100724.92
2022-12-31T18:38:56.546Z,100726.41
2022-12-31T18:40:01.777Z,100727.17
2022-12-31T18:41:06.058Z,100735.01
2022-12-31T18:42:11.015Z,100745.38
2022-12-31T18:43:16.682Z,100741.76
2022-12-31T18:44:19.067Z,100743.33
2022-12-31T18:45:24.442Z,100738.97
2022-12-31T18:46:29.389Z,100738.58
2022-12-31T18:47:37.634Z,100737.80
2022-12-31T18:48:38.636Z,100731.49
2022-12-31T18:49:42.558Z,100733.16
2022-12-31T18:50:46.607Z,100735.95
2022-12-31T18:51:51.123Z,100729.00
2022-12-31T18:52:54.419Z,100721.92
2022-12-31T18:53:57.205Z,100722.63
2022-12-31T18:54:59.871Z,100722.58
2022-12-31T18:56:04.203Z,100728.66
2022-12-31T18:57:07.825Z,100733.05
2022-12-31T18:58:10.925Z,100732.90
2022-12-31T18:59:14.300Z,100735.34
2022-12-31T19:00:18.015Z,100733.75
2022-12-31T19:01:35.400Z,100738.16
2022-12-31T19:02:38.962Z,100731.98
2022-12-31T19:03:41.703Z,100737.81
2022-12-31T19:04:44.268Z,100733.41
2022-12-31T19:05:51.769Z,100721.86
2022-12-31T19:06:55.139Z,100723.34
2022-12-31T19:07:58.431Z,100721.91
2022-12-31T19:09:01.348Z,100714.98
2022-12-31T19:10:04.922Z,100713.56
2022-12-31T19:11:11.054Z,100713.31
2022-12-31T19:12:15.613Z,100704.61
2022-12-31T19:13:20.140Z,100696.71
2022-12-31T19:14:24.887Z,100699.08
2022-12-31T19:15:30.408Z,100694.56
2022-12-31T19:16:33.091Z,100694.13
2022-12-31T19:17:35.728Z,100684.46
2022-12-31T19:18:39.087Z,100681.97
2022-12-31T19:19:42.528Z,100675.90
2022-12-31T19:20:45.080Z,100673.44
2022-12-31T19:21:48.803Z,100673.38
2022-12-31T19:22:51.273Z,100669.99
2022-12-31T19:23:54.501Z,100673.53
2022-12-31T19:24:57.759Z,100687.10
2022-12-31T19:26:02.150Z,100681.78
2022-12-31T19:27:08.227Z,100680.87
2022-12-31T19:28:18.177Z,100677.84
2022-12-31T19:29:21.801Z,100675.72
2022-12-31T19:30:29.685Z,100678.14
2022-12-31T19:31:33.648Z,100684.17
2022-12-31T19:32:36.493Z,100680.63
2022-12-31T19:33:39.703Z,100678.14
2022-12-31T19:34:42.348Z,100676.47
2022-12-31T19:35:46.163Z,100678.19
2022-12-31T19:36:49.591Z,100670.61
2022-12-31T19:37:53.918Z,100674.00
2022-12-31T19:38:58.466Z,100679.16
2022-12-31T19:40:01.974Z,100673.84
2022-12-31T19:41:05.318Z,100677.44
2022-12-31T19:42:09.848Z,100670.51
2022-12-31T19:43:13.934Z,100666.45
2022-12-31T19:44:18.388Z,100669.03
2022-12-31T19:45:23.345Z,100673.09
2022-12-31T19:46:29.333Z,100669.81
2022-12-31T19:47:32.790Z,100670.56
2022-12-31T19:48:36.603Z,100673.30
2022-12-31T19:49:39.871Z,100670.56
2022-12-31T19:50:47.427Z,100669.75
2022-12-31T19:51:54.230Z,100665.30
2022-12-31T19:54:13.037Z,100677.19
2022-12-31T19:55:19.331Z,100675.83
2022-12-31T19:56:21.999Z,100683.56
2022-12-31T19:57:24.681Z,100682.64
2022-12-31T19:58:28.531Z,100680.82
2022-12-31T19:59:32.069Z,100686.08
2022-12-31T20:00:37.493Z,100679.10
2022-12-31T20:01:41.633Z,100681.63
2022-12-31T20:02:46.145Z,100685.17
2022-12-31T20:03:49.369Z,100688.92
2022-12-31T20:04:53.915Z,100683.45
2022-12-31T20:06:06.202Z,100685.95
2022-12-31T20:07:10.221Z,100681.54
2022-12-31T20:08:15.188Z,100679.66
2022-12-31T20:09:18.588Z,100687.61
2022-12-31T20:10:21.995Z,100678.91
2022-12-31T20:11:24.874Z,100680.52
2022-12-31T20:12:29.729Z,100676.98